LFQX weather

Aérodrome de Juvancourt
Grand Est, France

Public forecast

Using degrees Celsius for public forecast. Weather courtesy of forecast.io.

Closest aviation weather report (METAR) to Aérodrome de Juvancourt

Closest report is Saint-Dizier-Robinson (BA 113) Air Base, 31.4 nm (58.2 km) N. Retrieved 2020/08/05 13:30 UTC (0 seconds ago):

LFSI 051330Z AUTO VRB03KT CAVOK 30/06 Q1016

Closest aviation forecast (TAF) to Aérodrome de Juvancourt

Closest forecast is Saint-Dizier-Robinson (BA 113) Air Base, 31.4 nm (58.2 km) N. Retrieved 2020/08/05 09:21 UTC (4 hours ago):

TAF TAF LFSI 050800Z 0509/0609 VRB05KT CAVOK TEMPO 0523/0609 09010KT